sensor_id;sensor_type;location;lat;lon;timestamp;P1;durP1;ratioP1;P2;durP2;ratioP2
10582;SDS011;33679;51.218;6.786;2024-02-26T00:01:33;1.47;;;1.10;;
10582;SDS011;33679;51.218;6.786;2024-02-26T00:04:06;1.57;;;1.00;;
10582;SDS011;33679;51.218;6.786;2024-02-26T00:06:39;2.43;;;1.67;;
10582;SDS011;33679;51.218;6.786;2024-02-26T00:09:12;1.83;;;1.20;;
10582;SDS011;33679;51.218;6.786;2024-02-26T00:11:46;1.90;;;1.20;;
10582;SDS011;33679;51.218;6.786;2024-02-26T00:14:18;1.40;;;1.30;;
10582;SDS011;33679;51.218;6.786;2024-02-26T00:16:50;9.67;;;1.30;;
10582;SDS011;33679;51.218;6.786;2024-02-26T00:19:22;1.33;;;0.90;;
10582;SDS011;33679;51.218;6.786;2024-02-26T00:21:55;1.93;;;1.43;;
10582;SDS011;33679;51.218;6.786;2024-02-26T00:24:27;2.10;;;1.40;;
10582;SDS011;33679;51.218;6.786;2024-02-26T00:27:01;1.40;;;1.03;;
10582;SDS011;33679;51.218;6.786;2024-02-26T00:29:33;2.63;;;1.20;;
10582;SDS011;33679;51.218;6.786;2024-02-26T00:32:06;2.00;;;1.17;;
10582;SDS011;33679;51.218;6.786;2024-02-26T00:34:38;1.53;;;1.43;;
10582;SDS011;33679;51.218;6.786;2024-02-26T00:37:14;1.40;;;0.97;;
10582;SDS011;33679;51.218;6.786;2024-02-26T00:39:46;2.00;;;1.20;;
10582;SDS011;33679;51.218;6.786;2024-02-26T00:42:20;2.50;;;1.27;;
10582;SDS011;33679;51.218;6.786;2024-02-26T00:44:53;1.97;;;1.10;;
10582;SDS011;33679;51.218;6.786;2024-02-26T00:47:26;1.10;;;0.90;;
10582;SDS011;33679;51.218;6.786;2024-02-26T00:49:58;1.83;;;1.00;;
10582;SDS011;33679;51.218;6.786;2024-02-26T00:52:31;1.00;;;0.90;;
10582;SDS011;33679;51.218;6.786;2024-02-26T00:55:05;1.57;;;1.27;;
10582;SDS011;33679;51.218;6.786;2024-02-26T00:57:40;1.30;;;1.00;;
10582;SDS011;33679;51.218;6.786;2024-02-26T01:00:14;1.27;;;1.00;;
10582;SDS011;33679;51.218;6.786;2024-02-26T01:02:48;2.20;;;1.20;;
10582;SDS011;33679;51.218;6.786;2024-02-26T01:05:21;1.27;;;1.10;;
10582;SDS011;33679;51.218;6.786;2024-02-26T01:07:53;4.20;;;0.90;;
10582;SDS011;33679;51.218;6.786;2024-02-26T01:10:26;1.77;;;1.07;;
10582;SDS011;33679;51.218;6.786;2024-02-26T01:13:00;1.07;;;0.90;;
10582;SDS011;33679;51.218;6.786;2024-02-26T01:15:32;1.80;;;1.20;;
10582;SDS011;33679;51.218;6.786;2024-02-26T01:18:04;1.00;;;0.90;;
10582;SDS011;33679;51.218;6.786;2024-02-26T01:20:37;2.13;;;1.30;;
10582;SDS011;33679;51.218;6.786;2024-02-26T01:23:09;1.50;;;1.20;;
10582;SDS011;33679;51.218;6.786;2024-02-26T01:25:43;1.17;;;0.90;;
10582;SDS011;33679;51.218;6.786;2024-02-26T01:28:17;1.10;;;1.00;;
10582;SDS011;33679;51.218;6.786;2024-02-26T01:30:50;1.23;;;1.00;;
10582;SDS011;33679;51.218;6.786;2024-02-26T01:33:24;1.30;;;1.00;;
10582;SDS011;33679;51.218;6.786;2024-02-26T01:35:57;1.53;;;1.10;;
10582;SDS011;33679;51.218;6.786;2024-02-26T01:38:32;1.57;;;0.97;;
10582;SDS011;33679;51.218;6.786;2024-02-26T01:41:04;1.30;;;1.03;;
10582;SDS011;33679;51.218;6.786;2024-02-26T01:43:38;3.13;;;1.00;;
10582;SDS011;33679;51.218;6.786;2024-02-26T01:46:11;1.30;;;0.90;;
10582;SDS011;33679;51.218;6.786;2024-02-26T01:48:46;2.20;;;1.00;;
10582;SDS011;33679;51.218;6.786;2024-02-26T01:51:21;1.27;;;1.03;;
10582;SDS011;33679;51.218;6.786;2024-02-26T01:53:54;1.47;;;0.83;;
10582;SDS011;33679;51.218;6.786;2024-02-26T01:56:26;2.10;;;1.20;;
10582;SDS011;33679;51.218;6.786;2024-02-26T01:59:03;1.00;;;0.90;;
10582;SDS011;33679;51.218;6.786;2024-02-26T02:01:37;1.03;;;0.90;;
10582;SDS011;33679;51.218;6.786;2024-02-26T02:04:15;2.10;;;0.80;;
10582;SDS011;33679;51.218;6.786;2024-02-26T02:06:48;1.00;;;0.90;;
10582;SDS011;33679;51.218;6.786;2024-02-26T02:09:22;1.83;;;1.10;;
10582;SDS011;33679;51.218;6.786;2024-02-26T02:11:55;1.30;;;0.90;;
10582;SDS011;33679;51.218;6.786;2024-02-26T02:14:29;1.20;;;1.07;;
10582;SDS011;33679;51.218;6.786;2024-02-26T02:17:02;1.20;;;1.10;;
10582;SDS011;33679;51.218;6.786;2024-02-26T02:19:35;1.70;;;1.30;;
10582;SDS011;33679;51.218;6.786;2024-02-26T02:22:08;1.20;;;1.10;;
10582;SDS011;33679;51.218;6.786;2024-02-26T02:24:41;1.20;;;1.07;;
10582;SDS011;33679;51.218;6.786;2024-02-26T02:27:14;1.57;;;0.80;;
10582;SDS011;33679;51.218;6.786;2024-02-26T02:29:47;1.63;;;1.00;;
10582;SDS011;33679;51.218;6.786;2024-02-26T02:32:20;2.57;;;1.10;;
10582;SDS011;33679;51.218;6.786;2024-02-26T02:34:54;1.40;;;1.03;;
10582;SDS011;33679;51.218;6.786;2024-02-26T02:37:28;2.50;;;1.47;;
10582;SDS011;33679;51.218;6.786;2024-02-26T02:40:00;1.90;;;0.90;;
10582;SDS011;33679;51.218;6.786;2024-02-26T02:42:33;1.50;;;0.90;;
10582;SDS011;33679;51.218;6.786;2024-02-26T02:45:06;1.33;;;1.13;;
10582;SDS011;33679;51.218;6.786;2024-02-26T02:47:39;1.43;;;1.00;;
10582;SDS011;33679;51.218;6.786;2024-02-26T02:50:11;1.10;;;1.00;;
10582;SDS011;33679;51.218;6.786;2024-02-26T02:52:45;1.63;;;1.13;;
10582;SDS011;33679;51.218;6.786;2024-02-26T02:55:18;2.27;;;1.43;;
10582;SDS011;33679;51.218;6.786;2024-02-26T02:57:51;2.23;;;0.93;;
10582;SDS011;33679;51.218;6.786;2024-02-26T03:00:25;2.40;;;1.23;;
10582;SDS011;33679;51.218;6.786;2024-02-26T03:02:57;1.20;;;1.10;;
10582;SDS011;33679;51.218;6.786;2024-02-26T03:05:29;1.43;;;1.23;;
10582;SDS011;33679;51.218;6.786;2024-02-26T03:08:02;1.07;;;1.00;;
10582;SDS011;33679;51.218;6.786;2024-02-26T03:10:37;1.43;;;1.00;;
10582;SDS011;33679;51.218;6.786;2024-02-26T03:13:09;1.20;;;1.10;;
10582;SDS011;33679;51.218;6.786;2024-02-26T03:15:42;1.50;;;1.20;;
10582;SDS011;33679;51.218;6.786;2024-02-26T03:18:14;1.67;;;1.00;;
10582;SDS011;33679;51.218;6.786;2024-02-26T03:20:48;1.53;;;1.13;;
10582;SDS011;33679;51.218;6.786;2024-02-26T03:23:23;1.40;;;0.90;;
10582;SDS011;33679;51.218;6.786;2024-02-26T03:25:55;1.10;;;1.00;;
10582;SDS011;33679;51.218;6.786;2024-02-26T03:28:27;1.10;;;1.00;;
10582;SDS011;33679;51.218;6.786;2024-02-26T03:30:59;1.10;;;1.00;;
10582;SDS011;33679;51.218;6.786;2024-02-26T03:33:36;1.47;;;1.20;;
10582;SDS011;33679;51.218;6.786;2024-02-26T03:36:08;1.90;;;1.20;;
10582;SDS011;33679;51.218;6.786;2024-02-26T03:38:43;1.83;;;0.97;;
10582;SDS011;33679;51.218;6.786;2024-02-26T03:41:15;1.20;;;1.00;;
10582;SDS011;33679;51.218;6.786;2024-02-26T03:43:48;0.97;;;0.83;;
10582;SDS011;33679;51.218;6.786;2024-02-26T03:46:20;1.40;;;1.10;;
10582;SDS011;33679;51.218;6.786;2024-02-26T03:48:52;1.40;;;1.20;;
10582;SDS011;33679;51.218;6.786;2024-02-26T03:51:25;2.40;;;1.13;;
10582;SDS011;33679;51.218;6.786;2024-02-26T03:54:05;1.90;;;1.20;;
10582;SDS011;33679;51.218;6.786;2024-02-26T03:56:43;3.03;;;0.90;;
10582;SDS011;33679;51.218;6.786;2024-02-26T03:59:15;1.40;;;1.10;;
10582;SDS011;33679;51.218;6.786;2024-02-26T04:01:51;0.80;;;0.80;;
10582;SDS011;33679;51.218;6.786;2024-02-26T04:04:25;1.20;;;1.00;;
10582;SDS011;33679;51.218;6.786;2024-02-26T04:06:59;1.37;;;1.03;;
10582;SDS011;33679;51.218;6.786;2024-02-26T04:09:32;1.63;;;1.10;;
10582;SDS011;33679;51.218;6.786;2024-02-26T04:12:05;1.10;;;1.00;;
10582;SDS011;33679;51.218;6.786;2024-02-26T04:14:43;1.33;;;1.17;;
10582;SDS011;33679;51.218;6.786;2024-02-26T04:17:16;1.30;;;1.00;;
10582;SDS011;33679;51.218;6.786;2024-02-26T04:19:48;1.83;;;0.90;;
10582;SDS011;33679;51.218;6.786;2024-02-26T04:22:21;2.83;;;1.30;;
10582;SDS011;33679;51.218;6.786;2024-02-26T04:24:55;1.07;;;0.97;;
10582;SDS011;33679;51.218;6.786;2024-02-26T04:27:28;1.47;;;1.37;;
10582;SDS011;33679;51.218;6.786;2024-02-26T04:30:00;1.43;;;1.30;;
10582;SDS011;33679;51.218;6.786;2024-02-26T04:32:32;1.57;;;1.13;;
10582;SDS011;33679;51.218;6.786;2024-02-26T04:35:05;1.20;;;1.10;;
10582;SDS011;33679;51.218;6.786;2024-02-26T04:37:38;1.30;;;1.20;;
10582;SDS011;33679;51.218;6.786;2024-02-26T04:40:14;2.60;;;1.20;;
10582;SDS011;33679;51.218;6.786;2024-02-26T04:42:46;1.93;;;1.30;;
10582;SDS011;33679;51.218;6.786;2024-02-26T04:45:19;1.83;;;1.00;;
10582;SDS011;33679;51.218;6.786;2024-02-26T04:47:53;2.40;;;1.40;;
10582;SDS011;33679;51.218;6.786;2024-02-26T04:50:26;1.37;;;1.10;;
10582;SDS011;33679;51.218;6.786;2024-02-26T04:52:59;1.20;;;1.10;;
10582;SDS011;33679;51.218;6.786;2024-02-26T04:55:35;1.30;;;1.20;;
10582;SDS011;33679;51.218;6.786;2024-02-26T04:58:07;1.87;;;1.43;;
10582;SDS011;33679;51.218;6.786;2024-02-26T05:00:41;1.90;;;1.20;;
10582;SDS011;33679;51.218;6.786;2024-02-26T05:03:14;1.40;;;1.30;;
10582;SDS011;33679;51.218;6.786;2024-02-26T05:05:47;1.97;;;1.77;;
10582;SDS011;33679;51.218;6.786;2024-02-26T05:08:19;1.90;;;1.40;;
10582;SDS011;33679;51.218;6.786;2024-02-26T05:10:53;2.20;;;1.40;;
10582;SDS011;33679;51.218;6.786;2024-02-26T05:13:25;1.30;;;1.20;;
10582;SDS011;33679;51.218;6.786;2024-02-26T05:15:57;1.57;;;1.30;;
10582;SDS011;33679;51.218;6.786;2024-02-26T05:18:30;2.00;;;1.40;;
10582;SDS011;33679;51.218;6.786;2024-02-26T05:21:02;3.63;;;1.40;;
10582;SDS011;33679;51.218;6.786;2024-02-26T05:23:35;3.83;;;1.57;;
10582;SDS011;33679;51.218;6.786;2024-02-26T05:26:09;4.30;;;1.33;;
10582;SDS011;33679;51.218;6.786;2024-02-26T05:28:42;2.67;;;1.30;;
10582;SDS011;33679;51.218;6.786;2024-02-26T05:31:14;1.40;;;1.30;;
10582;SDS011;33679;51.218;6.786;2024-02-26T05:33:47;2.50;;;1.70;;
10582;SDS011;33679;51.218;6.786;2024-02-26T05:36:20;1.90;;;1.50;;
10582;SDS011;33679;51.218;6.786;2024-02-26T05:38:54;2.00;;;1.43;;
10582;SDS011;33679;51.218;6.786;2024-02-26T05:41:29;3.30;;;1.70;;
10582;SDS011;33679;51.218;6.786;2024-02-26T05:44:02;1.63;;;1.30;;
10582;SDS011;33679;51.218;6.786;2024-02-26T05:46:34;2.07;;;1.40;;
10582;SDS011;33679;51.218;6.786;2024-02-26T05:49:07;1.53;;;1.40;;
10582;SDS011;33679;51.218;6.786;2024-02-26T05:51:39;1.80;;;1.63;;
10582;SDS011;33679;51.218;6.786;2024-02-26T05:54:12;2.67;;;1.73;;
10582;SDS011;33679;51.218;6.786;2024-02-26T05:56:46;2.50;;;1.70;;
10582;SDS011;33679;51.218;6.786;2024-02-26T05:59:21;3.20;;;2.00;;
10582;SDS011;33679;51.218;6.786;2024-02-26T06:01:53;3.53;;;2.00;;
10582;SDS011;33679;51.218;6.786;2024-02-26T06:04:26;2.10;;;1.90;;
10582;SDS011;33679;51.218;6.786;2024-02-26T06:06:58;3.20;;;1.90;;
10582;SDS011;33679;51.218;6.786;2024-02-26T06:09:31;5.07;;;1.90;;
10582;SDS011;33679;51.218;6.786;2024-02-26T06:12:06;2.17;;;1.73;;
10582;SDS011;33679;51.218;6.786;2024-02-26T06:14:39;5.13;;;1.60;;
10582;SDS011;33679;51.218;6.786;2024-02-26T06:17:12;1.93;;;1.60;;
10582;SDS011;33679;51.218;6.786;2024-02-26T06:19:44;1.73;;;1.47;;
10582;SDS011;33679;51.218;6.786;2024-02-26T06:22:20;2.80;;;2.20;;
10582;SDS011;33679;51.218;6.786;2024-02-26T06:24:52;1.90;;;1.80;;
10582;SDS011;33679;51.218;6.786;2024-02-26T06:27:26;2.83;;;1.97;;
10582;SDS011;33679;51.218;6.786;2024-02-26T06:29:58;2.60;;;2.40;;
10582;SDS011;33679;51.218;6.786;2024-02-26T06:32:31;2.90;;;2.17;;
10582;SDS011;33679;51.218;6.786;2024-02-26T06:35:04;2.57;;;2.10;;
10582;SDS011;33679;51.218;6.786;2024-02-26T06:37:39;3.33;;;2.20;;
10582;SDS011;33679;51.218;6.786;2024-02-26T06:40:13;2.47;;;2.20;;
10582;SDS011;33679;51.218;6.786;2024-02-26T06:42:46;3.50;;;1.93;;
10582;SDS011;33679;51.218;6.786;2024-02-26T06:45:20;2.70;;;1.93;;
10582;SDS011;33679;51.218;6.786;2024-02-26T06:47:52;2.87;;;2.00;;
10582;SDS011;33679;51.218;6.786;2024-02-26T06:50:26;2.07;;;1.90;;
10582;SDS011;33679;51.218;6.786;2024-02-26T06:52:58;5.57;;;1.93;;
10582;SDS011;33679;51.218;6.786;2024-02-26T06:55:30;2.80;;;2.30;;
10582;SDS011;33679;51.218;6.786;2024-02-26T06:58:04;5.00;;;2.30;;
10582;SDS011;33679;51.218;6.786;2024-02-26T07:00:37;2.70;;;2.13;;
10582;SDS011;33679;51.218;6.786;2024-02-26T07:03:09;2.50;;;2.10;;
10582;SDS011;33679;51.218;6.786;2024-02-26T07:05:42;2.40;;;2.07;;
10582;SDS011;33679;51.218;6.786;2024-02-26T07:08:17;3.00;;;2.43;;
10582;SDS011;33679;51.218;6.786;2024-02-26T07:10:50;1.70;;;1.60;;
10582;SDS011;33679;51.218;6.786;2024-02-26T07:13:23;3.27;;;2.27;;
10582;SDS011;33679;51.218;6.786;2024-02-26T07:15:56;2.47;;;2.07;;
10582;SDS011;33679;51.218;6.786;2024-02-26T07:18:29;2.90;;;2.33;;
10582;SDS011;33679;51.218;6.786;2024-02-26T07:21:02;4.00;;;2.27;;
10582;SDS011;33679;51.218;6.786;2024-02-26T07:23:35;3.50;;;2.27;;
10582;SDS011;33679;51.218;6.786;2024-02-26T07:26:10;3.00;;;2.30;;
10582;SDS011;33679;51.218;6.786;2024-02-26T07:28:44;4.93;;;2.20;;
10582;SDS011;33679;51.218;6.786;2024-02-26T07:31:17;2.93;;;2.60;;
10582;SDS011;33679;51.218;6.786;2024-02-26T07:33:50;2.60;;;1.77;;
10582;SDS011;33679;51.218;6.786;2024-02-26T07:36:26;3.93;;;2.13;;
10582;SDS011;33679;51.218;6.786;2024-02-26T07:38:59;2.60;;;2.00;;
10582;SDS011;33679;51.218;6.786;2024-02-26T07:41:31;2.03;;;1.77;;
10582;SDS011;33679;51.218;6.786;2024-02-26T07:44:07;4.33;;;2.70;;
10582;SDS011;33679;51.218;6.786;2024-02-26T07:46:42;12.90;;;8.20;;
10582;SDS011;33679;51.218;6.786;2024-02-26T07:49:14;3.37;;;2.80;;
10582;SDS011;33679;51.218;6.786;2024-02-26T07:51:47;5.67;;;2.80;;
10582;SDS011;33679;51.218;6.786;2024-02-26T07:54:19;3.50;;;2.40;;
10582;SDS011;33679;51.218;6.786;2024-02-26T07:56:51;3.20;;;2.53;;
10582;SDS011;33679;51.218;6.786;2024-02-26T07:59:29;4.80;;;3.30;;
10582;SDS011;33679;51.218;6.786;2024-02-26T08:02:04;3.50;;;2.20;;
10582;SDS011;33679;51.218;6.786;2024-02-26T08:04:38;2.10;;;1.90;;
10582;SDS011;33679;51.218;6.786;2024-02-26T08:07:13;2.83;;;2.23;;
10582;SDS011;33679;51.218;6.786;2024-02-26T08:09:45;2.07;;;1.90;;
10582;SDS011;33679;51.218;6.786;2024-02-26T08:12:19;3.37;;;2.20;;
10582;SDS011;33679;51.218;6.786;2024-02-26T08:14:53;4.13;;;2.27;;
10582;SDS011;33679;51.218;6.786;2024-02-26T08:17:26;3.40;;;2.10;;
10582;SDS011;33679;51.218;6.786;2024-02-26T08:19:58;3.20;;;2.00;;
10582;SDS011;33679;51.218;6.786;2024-02-26T08:22:30;3.23;;;2.23;;
10582;SDS011;33679;51.218;6.786;2024-02-26T08:25:04;3.03;;;2.03;;
10582;SDS011;33679;51.218;6.786;2024-02-26T08:27:39;3.73;;;1.90;;
10582;SDS011;33679;51.218;6.786;2024-02-26T08:30:14;3.37;;;2.27;;
10582;SDS011;33679;51.218;6.786;2024-02-26T08:32:47;2.63;;;1.93;;
10582;SDS011;33679;51.218;6.786;2024-02-26T08:35:20;3.50;;;2.27;;
10582;SDS011;33679;51.218;6.786;2024-02-26T08:37:53;3.33;;;2.00;;
10582;SDS011;33679;51.218;6.786;2024-02-26T08:40:26;3.60;;;2.73;;
10582;SDS011;33679;51.218;6.786;2024-02-26T08:42:58;14.67;;;10.40;;
10582;SDS011;33679;51.218;6.786;2024-02-26T08:45:35;7.20;;;5.40;;
10582;SDS011;33679;51.218;6.786;2024-02-26T08:48:08;4.00;;;3.13;;
10582;SDS011;33679;51.218;6.786;2024-02-26T08:50:40;2.53;;;2.03;;
10582;SDS011;33679;51.218;6.786;2024-02-26T08:53:18;4.57;;;2.50;;
10582;SDS011;33679;51.218;6.786;2024-02-26T08:55:52;2.63;;;1.97;;
10582;SDS011;33679;51.218;6.786;2024-02-26T08:58:24;4.90;;;2.23;;
10582;SDS011;33679;51.218;6.786;2024-02-26T09:01:00;1.97;;;1.80;;
10582;SDS011;33679;51.218;6.786;2024-02-26T09:03:33;3.70;;;2.80;;
10582;SDS011;33679;51.218;6.786;2024-02-26T09:06:05;2.90;;;2.10;;
10582;SDS011;33679;51.218;6.786;2024-02-26T09:08:39;4.23;;;2.87;;
10582;SDS011;33679;51.218;6.786;2024-02-26T09:11:13;2.50;;;2.27;;
10582;SDS011;33679;51.218;6.786;2024-02-26T09:13:46;5.30;;;3.63;;
10582;SDS011;33679;51.218;6.786;2024-02-26T09:16:19;8.93;;;5.27;;
10582;SDS011;33679;51.218;6.786;2024-02-26T09:18:52;5.60;;;3.87;;
10582;SDS011;33679;51.218;6.786;2024-02-26T09:21:25;6.40;;;4.77;;
10582;SDS011;33679;51.218;6.786;2024-02-26T09:23:59;7.30;;;5.03;;
10582;SDS011;33679;51.218;6.786;2024-02-26T09:26:32;3.87;;;2.77;;
10582;SDS011;33679;51.218;6.786;2024-02-26T09:29:05;3.30;;;2.10;;
10582;SDS011;33679;51.218;6.786;2024-02-26T09:31:40;1.80;;;1.70;;
10582;SDS011;33679;51.218;6.786;2024-02-26T09:34:12;4.73;;;2.27;;
10582;SDS011;33679;51.218;6.786;2024-02-26T09:36:48;2.70;;;2.03;;
10582;SDS011;33679;51.218;6.786;2024-02-26T09:39:21;2.83;;;2.47;;
10582;SDS011;33679;51.218;6.786;2024-02-26T09:41:54;3.03;;;2.50;;
10582;SDS011;33679;51.218;6.786;2024-02-26T09:44:31;2.17;;;1.93;;
10582;SDS011;33679;51.218;6.786;2024-02-26T09:47:11;3.43;;;2.00;;
10582;SDS011;33679;51.218;6.786;2024-02-26T09:49:51;8.20;;;2.27;;
10582;SDS011;33679;51.218;6.786;2024-02-26T09:52:27;2.10;;;1.90;;
10582;SDS011;33679;51.218;6.786;2024-02-26T09:55:03;3.70;;;2.13;;
10582;SDS011;33679;51.218;6.786;2024-02-26T09:57:39;4.20;;;2.20;;
10582;SDS011;33679;51.218;6.786;2024-02-26T10:00:17;8.20;;;2.67;;
10582;SDS011;33679;51.218;6.786;2024-02-26T10:02:53;2.93;;;2.37;;
10582;SDS011;33679;51.218;6.786;2024-02-26T10:05:28;3.30;;;2.10;;
10582;SDS011;33679;51.218;6.786;2024-02-26T10:08:01;4.03;;;2.33;;
10582;SDS011;33679;51.218;6.786;2024-02-26T10:10:38;5.97;;;2.90;;
10582;SDS011;33679;51.218;6.786;2024-02-26T10:13:11;2.20;;;2.00;;
10582;SDS011;33679;51.218;6.786;2024-02-26T10:15:48;3.80;;;2.17;;
10582;SDS011;33679;51.218;6.786;2024-02-26T10:18:25;5.90;;;1.90;;
10582;SDS011;33679;51.218;6.786;2024-02-26T10:21:02;7.73;;;4.60;;
10582;SDS011;33679;51.218;6.786;2024-02-26T10:24:30;4.17;;;2.50;;
10582;SDS011;33679;51.218;6.786;2024-02-26T10:26:59;4.33;;;2.50;;
10582;SDS011;33679;51.218;6.786;2024-02-26T10:29:31;3.60;;;2.30;;
10582;SDS011;33679;51.218;6.786;2024-02-26T10:32:07;4.67;;;2.00;;
10582;SDS011;33679;51.218;6.786;2024-02-26T10:34:43;2.80;;;2.50;;
10582;SDS011;33679;51.218;6.786;2024-02-26T10:37:16;5.30;;;2.97;;
10582;SDS011;33679;51.218;6.786;2024-02-26T10:39:49;4.43;;;3.23;;
10582;SDS011;33679;51.218;6.786;2024-02-26T10:42:22;5.33;;;2.57;;
10582;SDS011;33679;51.218;6.786;2024-02-26T10:45:01;3.13;;;2.30;;
10582;SDS011;33679;51.218;6.786;2024-02-26T10:47:47;3.70;;;2.53;;
10582;SDS011;33679;51.218;6.786;2024-02-26T10:50:22;3.57;;;2.50;;
10582;SDS011;33679;51.218;6.786;2024-02-26T10:52:57;3.87;;;2.40;;
10582;SDS011;33679;51.218;6.786;2024-02-26T10:55:31;5.07;;;2.70;;
10582;SDS011;33679;51.218;6.786;2024-02-26T10:58:06;4.40;;;2.97;;
10582;SDS011;33679;51.218;6.786;2024-02-26T11:00:45;3.27;;;2.97;;
10582;SDS011;33679;51.218;6.786;2024-02-26T11:03:27;3.87;;;2.50;;
10582;SDS011;33679;51.218;6.786;2024-02-26T11:06:08;5.13;;;2.80;;
10582;SDS011;33679;51.218;6.786;2024-02-26T11:08:44;6.27;;;2.50;;
10582;SDS011;33679;51.218;6.786;2024-02-26T11:11:20;4.27;;;2.93;;
10582;SDS011;33679;51.218;6.786;2024-02-26T11:13:54;4.87;;;3.23;;
10582;SDS011;33679;51.218;6.786;2024-02-26T11:16:32;3.23;;;2.57;;
10582;SDS011;33679;51.218;6.786;2024-02-26T11:19:22;4.20;;;2.57;;
10582;SDS011;33679;51.218;6.786;2024-02-26T11:21:59;4.30;;;2.77;;
10582;SDS011;33679;51.218;6.786;2024-02-26T11:24:33;4.30;;;2.67;;
10582;SDS011;33679;51.218;6.786;2024-02-26T11:27:10;6.00;;;2.80;;
10582;SDS011;33679;51.218;6.786;2024-02-26T11:29:47;3.60;;;2.30;;
10582;SDS011;33679;51.218;6.786;2024-02-26T11:32:27;3.37;;;2.33;;
10582;SDS011;33679;51.218;6.786;2024-02-26T11:35:00;3.23;;;2.20;;
10582;SDS011;33679;51.218;6.786;2024-02-26T11:37:35;2.53;;;2.30;;
10582;SDS011;33679;51.218;6.786;2024-02-26T11:40:10;5.83;;;2.97;;
10582;SDS011;33679;51.218;6.786;2024-02-26T11:42:52;4.00;;;3.00;;
10582;SDS011;33679;51.218;6.786;2024-02-26T11:48:30;3.63;;;3.03;;
10582;SDS011;33679;51.218;6.786;2024-02-26T11:51:04;4.50;;;3.30;;
10582;SDS011;33679;51.218;6.786;2024-02-26T11:53:45;3.50;;;2.50;;
10582;SDS011;33679;51.218;6.786;2024-02-26T11:56:20;3.47;;;2.80;;
10582;SDS011;33679;51.218;6.786;2024-02-26T11:58:56;3.60;;;3.13;;
10582;SDS011;33679;51.218;6.786;2024-02-26T12:01:37;4.43;;;2.90;;
10582;SDS011;33679;51.218;6.786;2024-02-26T12:04:18;3.53;;;2.67;;
10582;SDS011;33679;51.218;6.786;2024-02-26T12:06:53;4.67;;;3.57;;
10582;SDS011;33679;51.218;6.786;2024-02-26T12:09:32;4.07;;;3.30;;
10582;SDS011;33679;51.218;6.786;2024-02-26T12:12:12;6.03;;;3.03;;
10582;SDS011;33679;51.218;6.786;2024-02-26T12:14:51;5.10;;;4.00;;
10582;SDS011;33679;51.218;6.786;2024-02-26T12:17:27;4.53;;;3.10;;
10582;SDS011;33679;51.218;6.786;2024-02-26T12:20:08;5.90;;;3.80;;
10582;SDS011;33679;51.218;6.786;2024-02-26T12:22:44;5.20;;;3.30;;
10582;SDS011;33679;51.218;6.786;2024-02-26T12:25:24;5.27;;;3.60;;
10582;SDS011;33679;51.218;6.786;2024-02-26T12:27:57;6.53;;;3.70;;
10582;SDS011;33679;51.218;6.786;2024-02-26T12:30:33;5.53;;;3.80;;
10582;SDS011;33679;51.218;6.786;2024-02-26T12:33:07;5.17;;;4.00;;
10582;SDS011;33679;51.218;6.786;2024-02-26T12:35:43;7.57;;;3.83;;
10582;SDS011;33679;51.218;6.786;2024-02-26T12:38:20;5.43;;;4.33;;
10582;SDS011;33679;51.218;6.786;2024-02-26T12:40:54;7.30;;;4.30;;
10582;SDS011;33679;51.218;6.786;2024-02-26T12:43:30;5.53;;;4.00;;
10582;SDS011;33679;51.218;6.786;2024-02-26T12:46:03;7.80;;;5.20;;
10582;SDS011;33679;51.218;6.786;2024-02-26T12:48:36;8.67;;;4.83;;
10582;SDS011;33679;51.218;6.786;2024-02-26T12:51:09;7.20;;;4.60;;
10582;SDS011;33679;51.218;6.786;2024-02-26T12:53:43;6.13;;;4.10;;
10582;SDS011;33679;51.218;6.786;2024-02-26T12:56:23;5.87;;;4.57;;
10582;SDS011;33679;51.218;6.786;2024-02-26T12:59:12;7.80;;;4.50;;
10582;SDS011;33679;51.218;6.786;2024-02-26T13:01:45;7.07;;;4.80;;
10582;SDS011;33679;51.218;6.786;2024-02-26T13:04:20;6.47;;;4.33;;
10582;SDS011;33679;51.218;6.786;2024-02-26T13:06:53;7.03;;;4.50;;
10582;SDS011;33679;51.218;6.786;2024-02-26T13:09:26;9.30;;;5.67;;
10582;SDS011;33679;51.218;6.786;2024-02-26T13:12:00;6.63;;;4.93;;
10582;SDS011;33679;51.218;6.786;2024-02-26T13:14:38;8.47;;;6.07;;
10582;SDS011;33679;51.218;6.786;2024-02-26T13:17:13;9.70;;;6.50;;
10582;SDS011;33679;51.218;6.786;2024-02-26T13:19:50;7.37;;;4.80;;
10582;SDS011;33679;51.218;6.786;2024-02-26T13:22:26;6.37;;;4.73;;
10582;SDS011;33679;51.218;6.786;2024-02-26T13:25:09;8.03;;;4.83;;
10582;SDS011;33679;51.218;6.786;2024-02-26T13:27:44;4.43;;;4.03;;
10582;SDS011;33679;51.218;6.786;2024-02-26T13:30:17;9.47;;;5.70;;
10582;SDS011;33679;51.218;6.786;2024-02-26T13:32:51;9.33;;;4.73;;
10582;SDS011;33679;51.218;6.786;2024-02-26T13:35:23;6.53;;;4.60;;
10582;SDS011;33679;51.218;6.786;2024-02-26T13:37:55;10.70;;;5.53;;
10582;SDS011;33679;51.218;6.786;2024-02-26T13:40:28;10.47;;;5.80;;
10582;SDS011;33679;51.218;6.786;2024-02-26T13:43:05;6.10;;;4.17;;
10582;SDS011;33679;51.218;6.786;2024-02-26T13:45:38;9.47;;;5.10;;
10582;SDS011;33679;51.218;6.786;2024-02-26T13:48:12;6.00;;;4.53;;
10582;SDS011;33679;51.218;6.786;2024-02-26T13:50:45;8.87;;;5.00;;
10582;SDS011;33679;51.218;6.786;2024-02-26T13:53:21;7.83;;;5.27;;
10582;SDS011;33679;51.218;6.786;2024-02-26T13:55:54;10.60;;;4.50;;
10582;SDS011;33679;51.218;6.786;2024-02-26T13:58:30;8.20;;;5.70;;
10582;SDS011;33679;51.218;6.786;2024-02-26T14:01:03;11.87;;;4.60;;
10582;SDS011;33679;51.218;6.786;2024-02-26T14:03:37;8.97;;;5.20;;
10582;SDS011;33679;51.218;6.786;2024-02-26T14:06:11;7.90;;;4.97;;
10582;SDS011;33679;51.218;6.786;2024-02-26T14:08:45;7.20;;;4.70;;
10582;SDS011;33679;51.218;6.786;2024-02-26T14:11:18;7.03;;;4.77;;
10582;SDS011;33679;51.218;6.786;2024-02-26T14:13:52;8.53;;;5.23;;
10582;SDS011;33679;51.218;6.786;2024-02-26T14:16:25;11.40;;;6.87;;
10582;SDS011;33679;51.218;6.786;2024-02-26T14:19:00;7.40;;;5.57;;
10582;SDS011;33679;51.218;6.786;2024-02-26T14:21:35;6.70;;;4.30;;
10582;SDS011;33679;51.218;6.786;2024-02-26T14:24:07;8.67;;;5.73;;
10582;SDS011;33679;51.218;6.786;2024-02-26T14:26:40;9.77;;;5.13;;
10582;SDS011;33679;51.218;6.786;2024-02-26T14:29:14;6.47;;;4.43;;
10582;SDS011;33679;51.218;6.786;2024-02-26T14:31:47;6.93;;;5.00;;
10582;SDS011;33679;51.218;6.786;2024-02-26T14:34:19;5.33;;;4.13;;
10582;SDS011;33679;51.218;6.786;2024-02-26T14:36:54;6.97;;;4.57;;
10582;SDS011;33679;51.218;6.786;2024-02-26T14:39:28;6.10;;;4.70;;
10582;SDS011;33679;51.218;6.786;2024-02-26T14:42:01;5.10;;;3.83;;
10582;SDS011;33679;51.218;6.786;2024-02-26T14:44:38;4.40;;;3.63;;
10582;SDS011;33679;51.218;6.786;2024-02-26T14:47:12;8.40;;;4.70;;
10582;SDS011;33679;51.218;6.786;2024-02-26T14:49:46;9.13;;;3.93;;
10582;SDS011;33679;51.218;6.786;2024-02-26T14:52:21;6.27;;;4.10;;
10582;SDS011;33679;51.218;6.786;2024-02-26T14:54:53;4.53;;;3.97;;
10582;SDS011;33679;51.218;6.786;2024-02-26T14:57:25;5.00;;;3.93;;
10582;SDS011;33679;51.218;6.786;2024-02-26T15:00:01;6.60;;;3.97;;
10582;SDS011;33679;51.218;6.786;2024-02-26T15:02:36;7.00;;;4.07;;
10582;SDS011;33679;51.218;6.786;2024-02-26T15:05:10;5.57;;;3.47;;
10582;SDS011;33679;51.218;6.786;2024-02-26T15:07:44;5.60;;;4.20;;
10582;SDS011;33679;51.218;6.786;2024-02-26T15:10:18;7.43;;;4.90;;
10582;SDS011;33679;51.218;6.786;2024-02-26T15:12:51;5.83;;;3.93;;
10582;SDS011;33679;51.218;6.786;2024-02-26T15:15:27;5.23;;;3.77;;
10582;SDS011;33679;51.218;6.786;2024-02-26T15:18:02;6.03;;;4.00;;
10582;SDS011;33679;51.218;6.786;2024-02-26T15:20:35;6.30;;;4.00;;
10582;SDS011;33679;51.218;6.786;2024-02-26T15:23:08;4.40;;;3.73;;
10582;SDS011;33679;51.218;6.786;2024-02-26T15:25:42;9.10;;;4.30;;
10582;SDS011;33679;51.218;6.786;2024-02-26T15:28:14;7.43;;;4.23;;
10582;SDS011;33679;51.218;6.786;2024-02-26T15:30:48;7.60;;;4.60;;
10582;SDS011;33679;51.218;6.786;2024-02-26T15:33:21;5.13;;;3.40;;